createdAt,value
2023-04-10T00:01:55.401Z,99404.22
2023-04-10T00:03:57.698Z,99403.63
2023-04-10T00:06:01.715Z,99403.91
2023-04-10T00:08:03.428Z,99405.81
2023-04-10T00:10:05.285Z,99409.69
2023-04-10T00:12:07.044Z,99412.69
2023-04-10T00:14:08.570Z,99413.78
2023-04-10T00:16:11.152Z,99401.41
2023-04-10T00:18:12.710Z,99396.13
2023-04-10T00:20:14.150Z,99402.75
2023-04-10T00:22:15.897Z,99393.91
2023-04-10T00:24:21.543Z,99393.63
2023-04-10T00:26:26.832Z,99380.13
2023-04-10T00:28:28.293Z,99393.31
2023-04-10T00:30:29.785Z,99381.50
2023-04-10T00:32:31.242Z,99377.09
2023-04-10T00:34:32.985Z,99373.53
2023-04-10T00:36:35.159Z,99377.34
2023-04-10T00:38:38.075Z,99374.59
2023-04-10T00:40:39.488Z,99371.28
2023-04-10T00:42:41.635Z,99378.72
2023-04-10T00:44:43.874Z,99371.56
2023-04-10T00:46:45.707Z,99377.06
2023-04-10T00:48:47.638Z,99374.56
2023-04-10T00:50:49.380Z,99371.81
2023-04-10T00:52:51.570Z,99374.56
2023-04-10T00:54:53.152Z,99375.41
2023-04-10T00:56:57.339Z,99378.44
2023-04-10T00:59:00.255Z,99377.59
2023-04-10T01:01:03.894Z,99379.78
2023-04-10T01:03:05.530Z,99377.88
2023-04-10T01:05:09.203Z,99377.03
2023-04-10T01:07:33.205Z,99374.81
2023-04-10T01:09:49.652Z,99366.00
2023-04-10T01:12:00.370Z,99367.09
2023-04-10T01:14:27.896Z,99367.88
2023-04-10T01:16:41.415Z,99370.06
2023-04-10T01:18:57.374Z,99376.09
2023-04-10T01:21:02.301Z,99383.78
2023-04-10T01:23:12.850Z,99375.78
2023-04-10T01:25:51.767Z,99380.72
2023-04-10T01:28:40.451Z,99374.34
2023-04-10T01:30:43.645Z,99383.69
2023-04-10T01:32:45.931Z,99385.81
2023-04-10T01:34:50.964Z,99379.53
2023-04-10T01:36:59.716Z,99377.00
2023-04-10T01:39:02.562Z,99374.28
2023-04-10T01:41:05.973Z,99373.19
2023-04-10T01:43:10.324Z,99383.63
2023-04-10T01:45:29.381Z,99374.53
2023-04-10T01:47:34.200Z,99378.38
2023-04-10T01:49:42.467Z,99381.41
2023-04-10T01:51:46.421Z,99387.13
2023-04-10T01:53:52.383Z,99379.16
2023-04-10T01:55:59.900Z,99375.03
2023-04-10T01:58:01.668Z,99375.53
2023-04-10T02:00:04.489Z,99376.66
2023-04-10T02:02:19.151Z,99379.63
2023-04-10T02:04:20.999Z,99381.53
2023-04-10T02:06:45.177Z,99381.00
2023-04-10T02:08:58.926Z,99378.75
2023-04-10T02:11:29.534Z,99382.59
2023-04-10T02:13:34.323Z,99375.22
2023-04-10T02:15:40.144Z,99369.72
2023-04-10T02:17:44.959Z,99373.53
2023-04-10T02:19:48.288Z,99370.78
2023-04-10T02:21:51.477Z,99375.44
2023-04-10T02:23:53.487Z,99369.94
2023-04-10T02:26:00.321Z,99371.88
2023-04-10T02:28:06.013Z,99364.72
2023-04-10T02:30:10.444Z,99373.81
2023-04-10T02:32:12.599Z,99375.97
2023-04-10T02:34:14.099Z,99371.81
2023-04-10T02:36:15.867Z,99369.91
2023-04-10T02:38:17.520Z,99364.69
2023-04-10T02:40:18.993Z,99376.75
2023-04-10T02:42:27.807Z,99373.44
2023-04-10T02:44:33.293Z,99375.63
2023-04-10T02:46:35.058Z,99373.97
2023-04-10T02:48:37.128Z,99369.25
2023-04-10T02:50:38.882Z,99379.09
2023-04-10T02:52:43.844Z,99381.03
2023-04-10T02:54:48.349Z,99380.69
2023-04-10T02:56:49.934Z,99380.41
2023-04-10T02:58:51.511Z,99379.56
2023-04-10T03:00:53.176Z,99377.06
2023-04-10T03:03:14.294Z,99380.91
2023-04-10T03:05:21.279Z,99382.00
2023-04-10T03:07:23.115Z,99379.50
2023-04-10T03:09:24.773Z,99381.41
2023-04-10T03:11:26.970Z,99387.44
2023-04-10T03:13:28.755Z,99375.03
2023-04-10T03:15:31.582Z,99379.19
2023-04-10T03:17:33.816Z,99377.78
2023-04-10T03:19:35.336Z,99383.28
2023-04-10T03:21:39.751Z,99389.88
2023-04-10T03:23:41.376Z,99384.38
2023-04-10T03:25:43.364Z,99377.50
2023-04-10T03:27:45.797Z,99384.91
2023-04-10T03:29:47.181Z,99387.63
2023-04-10T03:31:51.767Z,99379.66
2023-04-10T03:33:56.430Z,99381.00
2023-04-10T03:35:58.346Z,99385.69
2023-04-10T03:38:03.334Z,99377.94
2023-04-10T03:40:07.702Z,99373.53
2023-04-10T03:42:09.828Z,99374.88
2023-04-10T03:44:12.399Z,99374.03
2023-04-10T03:46:14.043Z,99374.31
2023-04-10T03:48:19.004Z,99366.34
2023-04-10T03:50:39.277Z,99367.94
2023-04-10T03:52:42.925Z,99367.09
2023-04-10T03:54:49.217Z,99371.19
2023-04-10T03:57:00.011Z,99370.88
2023-04-10T03:59:02.284Z,99372.53
2023-04-10T04:01:05.269Z,99369.22
2023-04-10T04:03:14.124Z,99379.94
2023-04-10T04:05:28.370Z,99374.97
2023-04-10T04:07:55.685Z,99370.56
2023-04-10T04:10:12.229Z,99367.25
2023-04-10T04:12:28.278Z,99364.50
2023-04-10T04:14:51.014Z,99371.34
2023-04-10T04:16:52.715Z,99370.50
2023-04-10T04:19:11.691Z,99379.00
2023-04-10T04:21:22.160Z,99374.56
2023-04-10T04:23:41.047Z,99377.59
2023-04-10T04:26:09.049Z,99378.09
2023-04-10T04:28:30.331Z,99375.34
2023-04-10T04:30:54.843Z,99379.16
2023-04-10T04:33:18.359Z,99372.03
2023-04-10T04:35:43.158Z,99374.19
2023-04-10T04:37:52.416Z,99378.84
2023-04-10T04:40:12.425Z,99379.06
2023-04-10T04:42:35.003Z,99383.97
2023-04-10T04:45:02.394Z,99407.25
2023-04-10T04:47:28.982Z,99405.84
2023-04-10T04:49:54.262Z,99409.69
2023-04-10T04:52:04.034Z,99411.59
2023-04-10T04:54:28.610Z,99408.59
2023-04-10T04:56:51.598Z,99406.97
2023-04-10T04:59:01.180Z,99407.75
2023-04-10T05:01:09.511Z,99411.59
2023-04-10T05:03:28.849Z,99424.47
2023-04-10T05:05:43.364Z,99423.66
2023-04-10T05:07:56.166Z,99427.22
2023-04-10T05:10:26.222Z,99423.91
2023-04-10T05:12:45.976Z,99415.69
2023-04-10T05:14:57.807Z,99411.84
2023-04-10T05:17:19.073Z,99414.84
2023-04-10T05:19:30.563Z,99411.28
2023-04-10T05:22:01.121Z,99406.84
2023-04-10T05:24:25.998Z,99401.38
2023-04-10T05:26:57.673Z,99401.38
2023-04-10T05:29:16.568Z,99397.81
2023-04-10T05:31:33.498Z,99391.25
2023-04-10T05:33:46.375Z,99392.06
2023-04-10T05:36:00.712Z,99397.28
2023-04-10T05:38:12.061Z,99395.16
2023-04-10T05:40:21.398Z,99394.66
2023-04-10T05:42:46.336Z,99396.28
2023-04-10T05:45:22.743Z,99391.13
2023-04-10T05:47:24.311Z,99401.63
2023-04-10T05:49:44.333Z,99411.28
2023-04-10T05:52:00.212Z,99394.56
2023-04-10T05:54:21.997Z,99401.44
2023-04-10T05:56:40.468Z,99400.66
2023-04-10T05:59:00.873Z,99394.94
2023-04-10T06:01:21.191Z,99399.91
2023-04-10T06:03:33.912Z,99401.06
2023-04-10T06:05:37.020Z,99392.06
2023-04-10T06:07:41.926Z,99395.69
2023-04-10T06:09:43.339Z,99396.59
2023-04-10T06:11:45.713Z,99382.94
2023-04-10T06:13:51.273Z,99392.84
2023-04-10T06:15:53.129Z,99383.59
2023-04-10T06:17:55.669Z,99383.16
2023-04-10T06:19:59.460Z,99375.53
2023-04-10T06:22:01.437Z,99381.94
2023-04-10T06:24:03.882Z,99380.09
2023-04-10T06:26:05.658Z,99387.91
2023-04-10T06:28:07.427Z,99382.81
2023-04-10T06:30:09.431Z,99376.94
2023-04-10T06:32:10.974Z,99381.97
2023-04-10T06:34:14.775Z,99378.19
2023-04-10T06:36:29.749Z,99383.75
2023-04-10T06:38:38.416Z,99389.63
2023-04-10T06:40:43.424Z,99388.31
2023-04-10T06:42:47.298Z,99388.09
2023-04-10T06:44:56.928Z,99380.19
2023-04-10T06:46:58.627Z,99386.03
2023-04-10T06:49:00.307Z,99386.34
2023-04-10T06:51:01.935Z,99388.06
2023-04-10T06:53:03.516Z,99387.56
2023-04-10T06:55:05.866Z,99390.88
2023-04-10T06:57:07.284Z,99390.34
2023-04-10T06:59:08.774Z,99378.75
2023-04-10T07:01:10.510Z,99373.00
2023-04-10T07:03:18.108Z,99377.16
2023-04-10T07:05:19.549Z,99368.59
2023-04-10T07:07:21.351Z,99368.84
2023-04-10T07:09:23.232Z,99371.31
2023-04-10T07:11:31.806Z,99366.59
2023-04-10T07:13:42.587Z,99366.28
2023-04-10T07:15:53.124Z,99360.72
2023-04-10T07:17:57.690Z,99351.81
2023-04-10T07:20:06.442Z,99350.44
2023-04-10T07:22:09.311Z,99350.69
2023-04-10T07:24:13.776Z,99345.66
2023-04-10T07:26:15.583Z,99342.88
2023-04-10T07:28:19.224Z,99341.75
2023-04-10T07:30:20.987Z,99336.19
2023-04-10T07:32:23.443Z,99338.63
2023-04-10T07:34:28.380Z,99328.06
2023-04-10T07:36:35.659Z,99331.91
2023-04-10T07:38:44.679Z,99330.47
2023-04-10T07:40:46.429Z,99335.38
2023-04-10T07:42:52.029Z,99340.81
2023-04-10T07:44:54.810Z,99342.19
2023-04-10T07:46:59.358Z,99334.06
2023-04-10T07:49:04.300Z,99340.63
2023-04-10T07:51:09.834Z,99336.69
2023-04-10T07:53:11.541Z,99340.19
2023-04-10T07:55:13.024Z,99342.63
2023-04-10T07:57:17.451Z,99339.22
2023-04-10T07:59:18.997Z,99340.81
2023-04-10T08:01:20.907Z,99333.81
2023-04-10T08:03:45.811Z,99331.81
2023-04-10T08:05:47.906Z,99326.75
2023-04-10T08:07:49.344Z,99336.06
2023-04-10T08:09:52.454Z,99330.19
2023-04-10T08:12:02.046Z,99338.97
2023-04-10T08:14:05.884Z,99328.66
2023-04-10T08:16:13.390Z,99328.06
2023-04-10T08:18:15.318Z,99333.22
2023-04-10T08:20:19.308Z,99331.22
2023-04-10T08:22:26.759Z,99334.44
2023-04-10T08:24:31.880Z,99337.66
2023-04-10T08:26:33.543Z,99328.19
2023-04-10T08:28:36.380Z,99330.88
2023-04-10T08:30:44.205Z,99331.91
2023-04-10T08:32:50.297Z,99330.72
2023-04-10T08:35:00.772Z,99326.13
2023-04-10T08:37:06.542Z,99332.47
2023-04-10T08:39:08.047Z,99321.00
2023-04-10T08:41:15.533Z,99322.03
2023-04-10T08:43:20.321Z,99325.25
2023-04-10T08:45:22.459Z,99321.47
2023-04-10T08:47:28.083Z,99325.00
2023-04-10T08:49:47.701Z,99329.88
2023-04-10T08:51:56.288Z,99325.25
2023-04-10T08:54:06.743Z,99321.50
2023-04-10T08:56:12.078Z,99322.44
2023-04-10T08:58:16.695Z,99320.91
2023-04-10T09:00:23.293Z,99319.41
2023-04-10T09:02:25.443Z,99315.59
2023-04-10T09:04:31.932Z,99301.00
2023-04-10T09:06:33.575Z,99301.41
2023-04-10T09:08:43.371Z,99303.97
2023-04-10T09:10:47.094Z,99293.81
2023-04-10T09:12:49.163Z,99292.75
2023-04-10T09:14:53.352Z,99297.28
2023-04-10T09:17:20.112Z,99290.69
2023-04-10T09:19:32.302Z,99291.28
2023-04-10T09:21:36.307Z,99282.72
2023-04-10T09:23:45.593Z,99280.53
2023-04-10T09:25:48.747Z,99281.59
2023-04-10T09:28:05.970Z,99275.28
2023-04-10T09:30:08.497Z,99273.09
2023-04-10T09:32:12.682Z,99267.56
2023-04-10T09:34:15.359Z,99272.09
2023-04-10T09:36:18.523Z,99266.41
2023-04-10T09:38:25.914Z,99266.56
2023-04-10T09:40:30.391Z,99251.19
2023-04-10T09:42:38.952Z,99254.06
2023-04-10T09:44:41.423Z,99254.56
2023-04-10T09:46:43.122Z,99253.13
2023-04-10T09:48:59.381Z,99247.41
2023-04-10T09:51:01.134Z,99245.81
2023-04-10T09:53:02.582Z,99248.44
2023-04-10T09:55:06.051Z,99244.84
2023-04-10T09:57:11.409Z,99228.53
2023-04-10T09:59:14.395Z,99226.56
2023-04-10T10:01:35.415Z,99219.88
2023-04-10T10:03:55.364Z,99218.25
2023-04-10T10:05:57.010Z,99210.72
2023-04-10T10:07:58.645Z,99210.72
2023-04-10T10:10:03.647Z,99202.72
2023-04-10T10:12:09.194Z,99199.09
2023-04-10T10:14:18.627Z,99191.06
2023-04-10T10:16:49.559Z,99193.03
2023-04-10T10:19:12.863Z,99190.25
2023-04-10T10:21:19.120Z,99187.13
2023-04-10T10:23:22.394Z,99189.41
2023-04-10T10:25:26.691Z,99176.91
2023-04-10T10:27:34.478Z,99178.41
2023-04-10T10:29:41.047Z,99169.34
2023-04-10T10:31:50.157Z,99171.94
2023-04-10T10:33:52.964Z,99168.19
2023-04-10T10:35:57.936Z,99161.59
2023-04-10T10:38:02.857Z,99154.19
2023-04-10T10:40:28.724Z,99158.78
2023-04-10T10:43:04.534Z,99148.25
2023-04-10T10:45:19.175Z,99150.53
2023-04-10T10:47:27.456Z,99150.00
2023-04-10T10:50:01.569Z,99147.38
2023-04-10T10:52:03.076Z,99146.00
2023-04-10T10:54:34.476Z,99133.03
2023-04-10T10:56:43.653Z,99133.31
2023-04-10T10:58:54.504Z,99136.72
2023-04-10T11:00:59.239Z,99130.94
2023-04-10T11:03:10.722Z,99113.50
2023-04-10T11:05:51.423Z,99114.81
2023-04-10T11:07:59.254Z,99112.97
2023-04-10T11:10:04.376Z,99112.28
2023-04-10T11:12:07.786Z,99113.63
2023-04-10T11:14:09.325Z,99109.66
2023-04-10T11:16:11.242Z,99104.06
2023-04-10T11:18:12.764Z,99103.38
2023-04-10T11:20:14.414Z,99103.19
2023-04-10T11:22:18.770Z,99098.56
2023-04-10T11:26:48.558Z,99091.59
2023-04-10T11:28:50.148Z,99090.91
2023-04-10T11:30:51.586Z,99089.41
2023-04-10T11:33:05.441Z,99085.94
2023-04-10T11:35:07.348Z,99081.97
2023-04-10T11:37:08.761Z,99074.06
2023-04-10T11:39:22.342Z,99080.97
2023-04-10T11:41:32.127Z,99065.78
2023-04-10T11:43:39.287Z,99077.09
2023-04-10T11:45:41.144Z,99064.63
2023-04-10T11:47:51.896Z,99064.94
2023-04-10T11:49:55.828Z,99073.00
2023-04-10T11:51:59.322Z,99063.78
2023-04-10T11:54:07.013Z,99055.41
2023-04-10T11:56:23.762Z,99059.34
2023-04-10T11:58:32.096Z,99056.22
2023-04-10T12:00:56.218Z,99049.81
2023-04-10T12:03:01.926Z,99051.09
2023-04-10T12:05:03.925Z,99050.72
2023-04-10T12:07:05.483Z,99051.56
2023-04-10T12:09:30.585Z,99049.59
2023-04-10T12:11:34.706Z,99040.84
2023-04-10T12:13:52.207Z,99026.53
2023-04-10T12:15:54.460Z,99036.56
2023-04-10T12:17:59.169Z,99028.50
2023-04-10T12:20:05.863Z,99033.75
2023-04-10T12:22:12.129Z,99026.84
2023-04-10T12:24:33.655Z,99032.78
2023-04-10T12:26:35.604Z,99026.72
2023-04-10T12:28:38.766Z,99017.84
2023-04-10T12:30:46.978Z,99023.34
2023-04-10T12:33:02.566Z,99013.66
2023-04-10T12:35:12.826Z,99012.81
2023-04-10T12:37:14.268Z,99003.31
2023-04-10T12:39:24.985Z,99000.28
2023-04-10T12:41:33.313Z,99002.09
2023-04-10T12:43:37.637Z,98993.59
2023-04-10T12:45:45.806Z,98998.59
2023-04-10T12:48:00.721Z,98996.50
2023-04-10T12:52:41.751Z,98983.75
2023-04-10T12:54:49.107Z,98982.47
2023-04-10T12:56:51.458Z,98981.66
2023-04-10T12:59:07.077Z,98980.72
2023-04-10T13:01:11.636Z,98974.78
2023-04-10T13:03:13.281Z,98974.41
2023-04-10T13:05:15.581Z,98977.56
2023-04-10T13:07:17.400Z,98967.53
2023-04-10T13:09:20.177Z,98967.06
2023-04-10T13:11:24.648Z,98967.06
2023-04-10T13:13:31.517Z,98960.66
2023-04-10T13:15:42.284Z,98957.38
2023-04-10T13:17:43.966Z,98957.38
2023-04-10T13:19:53.578Z,98945.06
2023-04-10T13:21:55.211Z,98941.06
2023-04-10T13:24:00.229Z,98943.09
2023-04-10T13:26:02.220Z,98927.47
2023-04-10T13:28:11.504Z,98931.06
2023-04-10T13:30:13.516Z,98930.25
2023-04-10T13:32:15.520Z,98928.59
2023-04-10T13:34:17.100Z,98919.44
2023-04-10T13:36:18.665Z,98917.44
2023-04-10T13:38:21.424Z,98909.41
2023-04-10T13:40:23.180Z,98913.34
2023-04-10T13:42:40.581Z,98901.69
2023-04-10T13:44:46.155Z,98892.84
2023-04-10T13:46:47.879Z,98891.19
2023-04-10T13:51:51.230Z,98885.50
2023-04-10T13:53:52.899Z,98877.94
2023-04-10T13:55:59.774Z,98884.00
2023-04-10T13:58:07.235Z,98876.75
2023-04-10T14:00:10.154Z,98873.63
2023-04-10T14:02:14.679Z,98859.66
2023-04-10T14:04:16.596Z,98873.97
2023-04-10T14:06:18.409Z,98868.38
2023-04-10T14:08:20.736Z,98858.69
2023-04-10T14:10:31.072Z,98876.16
2023-04-10T14:12:32.700Z,98867.16
2023-04-10T14:14:34.495Z,98870.66
2023-04-10T14:16:36.152Z,98863.78
2023-04-10T14:18:37.678Z,98859.56
2023-04-10T14:20:42.229Z,98859.44
2023-04-10T14:22:43.761Z,98863.25
2023-04-10T14:24:45.467Z,98853.47
2023-04-10T14:26:49.770Z,98851.56
2023-04-10T14:28:55.666Z,98854.44
2023-04-10T14:30:57.898Z,98852.53
2023-04-10T14:32:59.935Z,98847.88
2023-04-10T14:35:01.637Z,98846.25
2023-04-10T14:37:03.346Z,98851.09
2023-04-10T14:39:05.048Z,98842.00
2023-04-10T14:41:06.896Z,98842.53
2023-04-10T14:43:11.318Z,98844.09
2023-04-10T14:45:15.376Z,98836.59
2023-04-10T14:47:16.838Z,98838.28
2023-04-10T14:49:18.304Z,98828.81
2023-04-10T14:51:30.062Z,98821.47
2023-04-10T14:53:31.558Z,98816.72
2023-04-10T14:55:42.110Z,98822.81
2023-04-10T14:57:43.701Z,98825.34
2023-04-10T14:59:45.385Z,98825.88
2023-04-10T15:01:47.182Z,98818.38
2023-04-10T15:03:49.197Z,98816.44
2023-04-10T15:05:58.937Z,98822.19
2023-04-10T15:08:00.759Z,98815.28
2023-04-10T15:10:02.508Z,98813.63
2023-04-10T15:12:04.367Z,98810.69
2023-04-10T15:14:05.848Z,98808.16
2023-04-10T15:16:08.080Z,98808.81
2023-04-10T15:18:09.656Z,98813.59
2023-04-10T15:20:11.841Z,98798.88
2023-04-10T15:22:13.487Z,98795.78
2023-04-10T15:24:21.070Z,98797.13
2023-04-10T15:26:23.173Z,98790.56
2023-04-10T15:28:30.183Z,98793.03
2023-04-10T15:30:31.647Z,98785.22
2023-04-10T15:32:33.304Z,98769.00
2023-04-10T15:34:34.843Z,98763.94
2023-04-10T15:36:36.367Z,98770.03
2023-04-10T15:38:38.420Z,98770.16
2023-04-10T15:40:39.924Z,98767.56
2023-04-10T15:42:41.386Z,98766.06
2023-04-10T15:44:49.038Z,98772.09
2023-04-10T15:46:51.079Z,98769.84
2023-04-10T15:48:52.697Z,98765.91
2023-04-10T15:50:54.279Z,98762.16
2023-04-10T15:52:55.897Z,98764.59
2023-04-10T15:55:00.815Z,98761.97
2023-04-10T15:57:03.347Z,98764.59
2023-04-10T15:59:07.956Z,98757.56
2023-04-10T16:01:09.594Z,98752.50
2023-04-10T16:03:13.953Z,98757.03
2023-04-10T16:05:15.717Z,98763.06
2023-04-10T16:07:17.665Z,98760.09
2023-04-10T16:11:23.754Z,98760.09
2023-04-10T16:13:25.303Z,98756.31
2023-04-10T16:15:28.422Z,98752.56
2023-04-10T16:17:30.420Z,98748.81
2023-04-10T16:19:31.990Z,98738.97
2023-04-10T16:21:33.387Z,98740.78
2023-04-10T16:23:34.789Z,98733.38
2023-04-10T16:25:36.679Z,98735.19
2023-04-10T16:27:38.149Z,98735.50
2023-04-10T16:29:42.323Z,98736.16
2023-04-10T16:31:45.211Z,98730.25
2023-04-10T16:33:46.720Z,98732.22
2023-04-10T16:35:51.244Z,98717.31
2023-04-10T16:37:53.491Z,98711.59
2023-04-10T17:38:30.567Z,98634.81
2023-04-10T17:40:32.108Z,98634.31
2023-04-10T17:42:33.677Z,98638.25
2023-04-10T17:44:35.376Z,98636.38
2023-04-10T17:46:36.944Z,98644.69
2023-04-10T17:48:39.123Z,98640.59
2023-04-10T17:50:40.975Z,98643.72
2023-04-10T17:52:44.528Z,98647.59
2023-04-10T17:54:49.292Z,98638.78
2023-04-10T17:56:52.639Z,98639.41
2023-04-10T17:58:58.968Z,98638.09
2023-04-10T18:01:01.346Z,98630.09
2023-04-10T18:03:03.290Z,98642.31
2023-04-10T18:05:09.901Z,98625.53
2023-04-10T18:07:11.602Z,98620.59
2023-04-10T18:09:13.503Z,98619.28
2023-04-10T18:11:15.237Z,98605.22
2023-04-10T18:13:19.676Z,98608.31
2023-04-10T18:15:21.181Z,98608.94
2023-04-10T18:17:22.800Z,98609.56
2023-04-10T18:19:24.469Z,98609.41
2023-04-10T18:21:29.046Z,98603.16
2023-04-10T18:23:31.222Z,98598.56
2023-04-10T18:25:32.900Z,98598.38
2023-04-10T18:27:36.216Z,98599.59
2023-04-10T18:29:38.036Z,98605.97
2023-04-10T18:31:39.623Z,98601.34
2023-04-10T18:33:41.304Z,98602.91
2023-04-10T18:35:43.467Z,98595.53
2023-04-10T18:37:47.870Z,98600.38
2023-04-10T18:39:49.449Z,98594.94
2023-04-10T18:41:51.009Z,98594.25
2023-04-10T18:44:01.830Z,98578.56
2023-04-10T18:46:08.662Z,98583.41
2023-04-10T18:48:10.373Z,98587.44
2023-04-10T18:50:11.960Z,98583.63
2023-04-10T18:52:13.627Z,98579.03
2023-04-10T18:54:15.097Z,98568.91
2023-04-10T18:56:16.865Z,98575.66
2023-04-10T18:58:19.542Z,98577.41
2023-04-10T19:00:21.291Z,98561.75
2023-04-10T19:02:22.924Z,98563.19
2023-04-10T19:04:24.834Z,98566.34
2023-04-10T19:06:26.943Z,98576.66
2023-04-10T19:08:28.621Z,98579.72
2023-04-10T19:12:30.740Z,98562.22
2023-04-10T19:14:35.824Z,98565.91
2023-04-10T19:16:37.666Z,98562.94
2023-04-10T19:18:42.107Z,98559.47
2023-04-10T19:20:51.171Z,98566.41
2023-04-10T19:22:54.250Z,98561.53
2023-04-10T19:24:55.830Z,98571.03
2023-04-10T19:26:57.499Z,98574.19
2023-04-10T19:28:59.185Z,98568.78
2023-04-10T19:31:01.046Z,98568.88
2023-04-10T19:33:02.730Z,98568.66
2023-04-10T19:35:04.697Z,98565.66
2023-04-10T19:37:06.352Z,98572.34
2023-04-10T19:39:08.694Z,98562.19
2023-04-10T19:41:17.260Z,98550.09
2023-04-10T19:43:18.880Z,98541.31
2023-04-10T19:45:22.128Z,98548.25
2023-04-10T19:47:23.735Z,98541.41
2023-04-10T19:49:27.248Z,98535.66
2023-04-10T19:51:30.135Z,98537.91
2023-04-10T19:53:31.926Z,98535.25
2023-04-10T19:55:34.304Z,98545.19
2023-04-10T19:57:35.913Z,98541.91
2023-04-10T19:59:37.540Z,98538.91
2023-04-10T20:01:39.046Z,98555.25
2023-04-10T20:03:40.738Z,98552.81
2023-04-10T20:05:42.869Z,98541.53
2023-04-10T20:07:44.361Z,98522.00
2023-04-10T20:09:46.066Z,98510.72
2023-04-10T20:11:47.593Z,98500.00
2023-04-10T20:13:49.170Z,98516.06
2023-04-10T20:15:51.051Z,98535.66
2023-04-10T20:17:52.630Z,98552.53
2023-04-10T20:19:55.045Z,98552.03
2023-04-10T20:21:56.821Z,98552.63
2023-04-10T20:23:58.352Z,98535.53
2023-04-10T20:25:59.868Z,98539.41
2023-04-10T20:28:01.493Z,98536.66
2023-04-10T20:30:03.466Z,98539.19
2023-04-10T20:32:08.099Z,98522.13
2023-04-10T20:34:18.633Z,98510.88
2023-04-10T20:36:20.946Z,98508.72
2023-04-10T20:38:22.442Z,98499.94
2023-04-10T20:40:23.879Z,98495.00
2023-04-10T20:42:25.369Z,98502.22
2023-04-10T20:44:26.837Z,98495.69
2023-04-10T20:46:29.359Z,98499.56
2023-04-10T20:48:34.221Z,98484.75
2023-04-10T20:50:37.028Z,98475.94
2023-04-10T20:52:39.701Z,98481.75
2023-04-10T20:54:41.325Z,98484.31
2023-04-10T20:56:44.034Z,98484.59
2023-04-10T20:58:45.818Z,98479.38
2023-04-10T21:00:47.542Z,98465.09
2023-04-10T21:02:49.096Z,98457.09
2023-04-10T21:04:52.101Z,98455.75
2023-04-10T21:06:53.762Z,98451.38
2023-04-10T21:08:57.794Z,98449.22
2023-04-10T21:10:59.508Z,98455.00
2023-04-10T21:13:03.826Z,98456.16
2023-04-10T21:15:05.830Z,98467.44
2023-04-10T21:17:07.376Z,98460.91
2023-04-10T21:19:09.301Z,98456.00
2023-04-10T21:21:10.920Z,98463.44
2023-04-10T21:23:14.728Z,98457.13
2023-04-10T21:25:19.178Z,98449.44
2023-04-10T21:27:21.015Z,98447.53
2023-04-10T21:29:22.753Z,98423.31
2023-04-10T21:31:24.469Z,98420.03
2023-04-10T21:33:26.009Z,98413.19
2023-04-10T21:35:30.564Z,98413.44
2023-04-10T21:37:32.074Z,98412.09
2023-04-10T21:39:33.726Z,98404.41
2023-04-10T21:41:38.608Z,98405.34
2023-04-10T21:43:40.112Z,98403.78
2023-04-10T21:45:42.798Z,98409.66
2023-04-10T21:47:44.354Z,98406.16
2023-04-10T21:49:45.894Z,98413.38
2023-04-10T21:51:47.526Z,98407.34
2023-04-10T21:53:49.064Z,98414.56
2023-04-10T21:55:50.654Z,98410.16
2023-04-10T21:57:52.091Z,98401.69
2023-04-10T21:59:53.522Z,98401.69
2023-04-10T22:01:58.664Z,98386.28
2023-04-10T22:04:00.408Z,98375.56
2023-04-10T22:06:02.019Z,98371.97
2023-04-10T22:08:03.658Z,98373.41
2023-04-10T22:10:05.858Z,98384.72
2023-04-10T22:12:07.472Z,98386.66
2023-04-10T22:14:17.270Z,98382.25
2023-04-10T22:16:20.356Z,98383.38
2023-04-10T22:18:21.990Z,98383.38
2023-04-10T22:20:26.142Z,98379.28
2023-04-10T22:22:27.954Z,98376.53
2023-04-10T22:24:33.844Z,98389.47
2023-04-10T22:26:35.650Z,98388.66
2023-04-10T22:28:38.478Z,98384.56
2023-04-10T22:30:40.010Z,98379.06
2023-04-10T22:32:41.607Z,98378.22
2023-04-10T22:34:43.117Z,98366.69
2023-04-10T22:36:47.002Z,98360.38
2023-04-10T22:38:48.475Z,98357.91
2023-04-10T22:40:49.949Z,98364.53
2023-04-10T22:42:52.928Z,98359.84
2023-04-10T22:44:54.635Z,98357.09
2023-04-10T22:46:56.320Z,98343.31
2023-04-10T22:48:57.946Z,98336.16
2023-04-10T22:51:01.413Z,98343.31
2023-04-10T22:53:02.968Z,98339.47
2023-04-10T22:55:06.789Z,98333.13
2023-04-10T22:57:08.309Z,98327.13
2023-04-10T22:59:10.463Z,98329.03
2023-04-10T23:01:12.167Z,98325.47
2023-04-10T23:03:16.111Z,98323.53
2023-04-10T23:05:17.778Z,98319.13
2023-04-10T23:07:19.286Z,98324.13
2023-04-10T23:09:20.741Z,98317.50
2023-04-10T23:11:22.259Z,98314.22
2023-04-10T23:13:23.925Z,98310.34
2023-04-10T23:15:25.461Z,98318.63
2023-04-10T23:17:27.026Z,98316.38
2023-04-10T23:19:28.529Z,98316.38
2023-04-10T23:21:30.219Z,98323.53
2023-04-10T23:23:31.725Z,98303.94
2023-04-10T23:25:33.281Z,98291.50
2023-04-10T23:27:34.811Z,98265.63
2023-04-10T23:29:36.350Z,98244.91
2023-04-10T23:31:37.815Z,98219.00
2023-04-10T23:33:39.435Z,98199.44
2023-04-10T23:35:41.060Z,98193.91
2023-04-10T23:37:42.622Z,98183.19
2023-04-10T23:39:44.036Z,98213.81
2023-04-10T23:41:45.565Z,98224.81
2023-04-10T23:43:47.270Z,98224.31
2023-04-10T23:45:50.815Z,98219.38
2023-04-10T23:47:52.855Z,98215.00
2023-04-10T23:49:55.256Z,98213.38
2023-04-10T23:51:56.917Z,98217.84
2023-04-10T23:53:58.801Z,98218.66
2023-04-10T23:56:00.955Z,98235.50
2023-04-10T23:58:03.501Z,98234.97
